createdAt,value
2022-08-09T00:00:29.928Z,1.60
2022-08-09T00:02:58.931Z,1.50
2022-08-09T00:06:18.563Z,1.30
2022-08-09T00:08:32.594Z,1.50
2022-08-09T00:11:05.956Z,1.40
2022-08-09T00:13:56.794Z,1.40
2022-08-09T00:16:38.514Z,1.37
2022-08-09T00:19:09.599Z,1.60
2022-08-09T00:21:56.226Z,1.80
2022-08-09T00:24:32.706Z,1.90
2022-08-09T00:30:23.609Z,1.80
2022-08-09T00:32:54.038Z,1.70
2022-08-09T00:35:29.643Z,1.60
2022-08-09T00:38:21.449Z,1.50
2022-08-09T00:40:53.227Z,1.70
2022-08-09T00:44:13.798Z,1.60
2022-08-09T00:46:28.361Z,1.60
2022-08-09T00:49:11.942Z,1.80
2022-08-09T00:52:05.977Z,2.10
2022-08-09T00:54:45.037Z,1.67
2022-08-09T00:57:12.737Z,1.80
2022-08-09T00:59:55.013Z,1.70
2022-08-09T01:03:28.446Z,2.00
2022-08-09T01:06:25.544Z,1.77
2022-08-09T01:09:57.933Z,1.83
2022-08-09T01:12:28.187Z,1.97
2022-08-09T01:15:17.041Z,1.83
2022-08-09T01:18:09.689Z,1.83
2022-08-09T01:20:58.324Z,1.90
2022-08-09T01:24:04.922Z,2.13
2022-08-09T01:26:54.088Z,1.70
2022-08-09T01:29:55.303Z,2.00
2022-08-09T01:32:31.790Z,2.20
2022-08-09T01:35:38.659Z,2.10
2022-08-09T01:38:19.960Z,2.30
2022-08-09T01:44:05.969Z,2.10
2022-08-09T01:46:38.426Z,2.30
2022-08-09T01:49:12.659Z,2.20
2022-08-09T01:52:07.265Z,2.17
2022-08-09T01:54:48.703Z,2.10
2022-08-09T01:57:21.696Z,2.13
2022-08-09T01:59:52.991Z,2.00
2022-08-09T02:02:30.843Z,2.23
2022-08-09T02:05:05.194Z,2.23
2022-08-09T02:08:40.277Z,1.90
2022-08-09T02:10:40.338Z,2.00
2022-08-09T02:13:13.300Z,2.20
2022-08-09T02:15:50.909Z,1.90
2022-08-09T02:21:08.572Z,2.50
2022-08-09T02:24:02.655Z,2.13
2022-08-09T02:26:34.594Z,2.57
2022-08-09T02:29:15.703Z,2.37
2022-08-09T02:31:46.420Z,2.23
2022-08-09T02:34:41.588Z,2.30
2022-08-09T02:37:31.665Z,2.83
2022-08-09T02:40:10.573Z,2.60
2022-08-09T02:42:42.886Z,2.30
2022-08-09T02:45:17.579Z,2.73
2022-08-09T02:47:46.255Z,2.70
2022-08-09T02:50:28.388Z,2.87
2022-08-09T02:53:00.699Z,2.50
2022-08-09T02:55:46.221Z,2.57
2022-08-09T02:58:35.913Z,2.60
2022-08-09T03:01:08.066Z,2.73
2022-08-09T03:04:17.628Z,2.80
2022-08-09T03:06:30.119Z,2.70
2022-08-09T03:09:03.839Z,2.57
2022-08-09T03:12:05.340Z,2.37
2022-08-09T03:14:26.564Z,2.90
2022-08-09T03:16:58.230Z,3.03
2022-08-09T03:19:52.267Z,2.70
2022-08-09T03:25:21.735Z,2.90
2022-08-09T03:28:02.191Z,3.07
2022-08-09T03:30:33.200Z,2.90
2022-08-09T03:33:12.768Z,3.30
2022-08-09T03:36:12.523Z,3.23
2022-08-09T03:38:33.661Z,3.20
2022-08-09T03:41:01.024Z,2.93
2022-08-09T03:43:32.005Z,2.80
2022-08-09T03:46:04.087Z,3.00
2022-08-09T03:48:53.837Z,3.10
2022-08-09T03:51:43.858Z,3.00
2022-08-09T03:54:13.249Z,3.10
2022-08-09T03:56:42.328Z,3.10
2022-08-09T03:59:17.303Z,3.07
2022-08-09T04:01:51.860Z,3.20
2022-08-09T04:04:19.399Z,3.00
2022-08-09T04:06:49.094Z,3.13
2022-08-09T04:09:44.362Z,3.30
2022-08-09T04:12:30.639Z,3.10
2022-08-09T04:15:02.593Z,3.33
2022-08-09T04:17:42.424Z,3.23
2022-08-09T04:20:12.640Z,3.80
2022-08-09T04:22:41.384Z,3.33
2022-08-09T04:25:13.362Z,3.27
2022-08-09T04:27:49.032Z,3.13
2022-08-09T04:30:26.041Z,3.23
2022-08-09T04:32:54.057Z,3.20
2022-08-09T04:35:21.573Z,3.70
2022-08-09T04:37:51.178Z,3.20
2022-08-09T04:40:28.459Z,3.40
2022-08-09T04:43:03.558Z,3.17
2022-08-09T04:45:31.051Z,3.13
2022-08-09T04:48:06.696Z,3.53
2022-08-09T04:50:38.000Z,3.40
2022-08-09T04:53:11.656Z,3.60
2022-08-09T04:55:58.306Z,3.50
2022-08-09T04:58:28.020Z,3.57
2022-08-09T05:00:57.560Z,3.77
2022-08-09T05:03:39.987Z,3.40
2022-08-09T05:06:09.756Z,3.70
2022-08-09T05:08:38.895Z,3.70
2022-08-09T05:11:11.625Z,3.53
2022-08-09T05:13:39.149Z,3.70
2022-08-09T05:16:08.033Z,3.90
2022-08-09T05:18:42.765Z,4.20
2022-08-09T05:21:24.629Z,3.37
2022-08-09T05:23:57.201Z,3.47
2022-08-09T05:26:37.234Z,3.60
2022-08-09T05:29:21.105Z,3.47
2022-08-09T05:31:58.520Z,4.50
2022-08-09T05:34:30.971Z,3.80
2022-08-09T05:37:05.958Z,3.97
2022-08-09T05:39:42.915Z,3.83
2022-08-09T05:42:32.999Z,4.00
2022-08-09T05:45:01.261Z,4.33
2022-08-09T05:47:30.449Z,4.23
2022-08-09T05:50:30.974Z,4.40
2022-08-09T05:52:53.519Z,3.80
2022-08-09T05:55:23.966Z,4.17
2022-08-09T05:57:57.667Z,4.63
2022-08-09T06:00:30.381Z,3.90
2022-08-09T06:02:59.454Z,4.00
2022-08-09T06:05:31.203Z,3.37
2022-08-09T06:08:19.735Z,3.13
2022-08-09T06:10:52.557Z,3.00
2022-08-09T06:13:20.965Z,3.03
2022-08-09T06:15:50.989Z,3.00
2022-08-09T06:18:23.959Z,3.23
2022-08-09T06:20:54.673Z,3.37
2022-08-09T06:23:55.766Z,3.20
2022-08-09T06:26:20.389Z,2.60
2022-08-09T06:28:59.303Z,2.80
2022-08-09T06:31:30.631Z,2.73
2022-08-09T06:33:58.706Z,2.83
2022-08-09T06:36:27.330Z,3.03
2022-08-09T06:38:57.537Z,3.00
2022-08-09T06:42:06.398Z,3.33
2022-08-09T06:44:18.368Z,3.07
2022-08-09T06:46:45.934Z,3.07
2022-08-09T06:49:16.168Z,2.60
2022-08-09T06:52:00.425Z,3.07
2022-08-09T06:54:27.892Z,3.13
2022-08-09T06:56:55.048Z,2.80
2022-08-09T07:00:56.360Z,2.80
2022-08-09T07:02:10.629Z,3.10
2022-08-09T07:04:37.926Z,2.60
2022-08-09T07:07:05.367Z,2.97
2022-08-09T07:09:56.123Z,3.27
2022-08-09T07:12:40.679Z,2.80
2022-08-09T07:15:54.075Z,3.40
2022-08-09T07:17:56.078Z,2.97
2022-08-09T07:20:29.115Z,2.93
2022-08-09T07:22:56.346Z,2.87
2022-08-09T07:25:25.429Z,3.10
2022-08-09T07:27:53.264Z,2.90
2022-08-09T07:30:21.714Z,3.00
2022-08-09T07:32:51.844Z,2.97
2022-08-09T07:35:19.795Z,2.57
2022-08-09T07:37:50.983Z,2.40
2022-08-09T07:40:26.735Z,2.30
2022-08-09T07:42:57.826Z,2.30
2022-08-09T07:45:39.097Z,2.60
2022-08-09T07:48:28.732Z,2.70
2022-08-09T07:56:49.273Z,2.50
2022-08-09T08:09:03.957Z,2.03
2022-08-09T08:12:12.019Z,1.97
2022-08-09T08:14:30.132Z,2.17
2022-08-09T08:17:07.404Z,2.90
2022-08-09T08:19:35.654Z,2.50
2022-08-09T08:22:05.804Z,2.20
2022-08-09T08:24:40.747Z,2.17
2022-08-09T08:30:23.286Z,2.33
2022-08-09T08:33:00.008Z,1.90
2022-08-09T08:35:37.080Z,2.47
2022-08-09T08:38:18.810Z,2.40
2022-08-09T08:40:49.511Z,2.40
2022-08-09T08:43:17.517Z,2.10
2022-08-09T08:45:53.441Z,1.90
2022-08-09T08:48:32.483Z,2.23
2022-08-09T08:51:00.195Z,2.23
2022-08-09T08:53:32.095Z,2.70
2022-08-09T08:56:05.244Z,2.40
2022-08-09T08:58:36.411Z,2.40
2022-08-09T09:01:09.131Z,2.37
2022-08-09T09:03:50.426Z,1.87
2022-08-09T09:06:18.504Z,2.10
2022-08-09T09:09:06.646Z,2.00
2022-08-09T09:11:48.656Z,2.00
2022-08-09T09:14:18.372Z,1.80
2022-08-09T09:16:45.813Z,2.07
2022-08-09T09:19:37.598Z,1.80
2022-08-09T09:22:12.574Z,1.97
2022-08-09T09:24:59.084Z,1.90
2022-08-09T09:28:03.665Z,2.03
2022-08-09T09:30:40.879Z,1.70
2022-08-09T09:33:15.734Z,1.63
2022-08-09T09:36:02.805Z,1.63
2022-08-09T09:38:39.874Z,2.00
2022-08-09T09:41:09.998Z,2.13
2022-08-09T09:43:41.504Z,1.93
2022-08-09T09:46:45.671Z,1.93
2022-08-09T09:49:32.191Z,1.77
2022-08-09T09:52:16.640Z,1.40
2022-08-09T09:55:27.713Z,1.70
2022-08-09T09:58:01.161Z,1.50
2022-08-09T10:00:34.457Z,1.57
2022-08-09T10:03:11.614Z,1.83
2022-08-09T10:06:03.924Z,1.93
2022-08-09T10:08:32.199Z,1.63
2022-08-09T10:11:59.525Z,2.00
2022-08-09T10:14:04.679Z,1.90
2022-08-09T10:16:58.457Z,2.03
2022-08-09T10:19:38.156Z,1.90
2022-08-09T10:22:05.183Z,1.77
2022-08-09T10:24:35.909Z,1.80
2022-08-09T10:27:10.435Z,1.70
2022-08-09T10:30:48.142Z,1.47
2022-08-09T10:32:42.355Z,2.10
2022-08-09T10:35:10.672Z,1.77
2022-08-09T10:37:40.255Z,1.70
2022-08-09T10:40:34.879Z,2.33
2022-08-09T10:42:57.342Z,1.83
2022-08-09T10:45:31.531Z,1.80
2022-08-09T10:48:29.628Z,1.67
2022-08-09T10:51:14.668Z,1.57
2022-08-09T10:53:54.775Z,1.40
2022-08-09T10:56:24.237Z,1.93
2022-08-09T10:58:56.193Z,1.70
2022-08-09T11:03:15.934Z,2.00
2022-08-09T11:04:30.984Z,1.50
2022-08-09T11:07:00.078Z,1.90
2022-08-09T11:09:47.929Z,1.50
2022-08-09T11:12:29.423Z,1.50
2022-08-09T11:14:57.653Z,1.40
2022-08-09T11:17:27.466Z,1.67
2022-08-09T11:20:10.199Z,1.90
2022-08-09T11:22:44.855Z,1.47
2022-08-09T11:25:12.529Z,1.43
2022-08-09T11:28:03.768Z,1.20
2022-08-09T11:30:32.627Z,1.50
2022-08-09T11:33:21.070Z,1.40
2022-08-09T11:35:59.804Z,1.50
2022-08-09T11:38:34.137Z,1.40
2022-08-09T11:41:37.960Z,1.87
2022-08-09T11:44:08.332Z,1.60
2022-08-09T11:47:01.075Z,1.40
2022-08-09T11:50:54.037Z,1.27
2022-08-09T11:53:15.991Z,1.27
2022-08-09T11:55:52.772Z,1.47
2022-08-09T11:58:32.259Z,1.60
2022-08-09T12:01:03.543Z,1.50
2022-08-09T12:03:56.977Z,1.40
2022-08-09T12:06:32.686Z,1.50
2022-08-09T12:09:19.126Z,1.23
2022-08-09T12:12:13.073Z,1.40
2022-08-09T12:15:08.317Z,1.40
2022-08-09T12:17:43.463Z,1.20
2022-08-09T12:20:22.868Z,1.50
2022-08-09T12:22:55.764Z,1.20
2022-08-09T12:25:36.568Z,1.40
2022-08-09T12:29:10.807Z,1.67
2022-08-09T12:30:59.319Z,1.50
2022-08-09T12:33:35.275Z,1.40
2022-08-09T12:36:27.478Z,1.30
2022-08-09T12:39:00.415Z,1.40
2022-08-09T12:41:39.211Z,1.57
2022-08-09T12:44:10.258Z,1.50
2022-08-09T12:46:41.890Z,1.13
2022-08-09T12:49:11.026Z,1.30
2022-08-09T12:52:00.581Z,1.30
2022-08-09T12:54:28.112Z,1.33
2022-08-09T12:56:58.972Z,1.43
2022-08-09T12:59:57.712Z,1.47
2022-08-09T13:02:17.709Z,1.40
2022-08-09T13:05:04.418Z,1.57
2022-08-09T13:07:50.129Z,1.27
2022-08-09T13:10:17.999Z,1.20
2022-08-09T13:13:10.038Z,1.10
2022-08-09T13:15:36.334Z,1.27
2022-08-09T13:18:09.653Z,1.40
2022-08-09T13:21:04.101Z,1.27
2022-08-09T13:24:17.267Z,1.00
2022-08-09T13:26:37.182Z,0.90
2022-08-09T13:29:13.012Z,1.20
2022-08-09T13:32:15.022Z,1.20
2022-08-09T13:34:46.238Z,1.30
2022-08-09T13:37:24.787Z,1.20
2022-08-09T13:41:50.597Z,1.27
2022-08-09T13:42:50.295Z,1.03
2022-08-09T13:45:18.019Z,1.10
2022-08-09T13:47:49.151Z,0.90
2022-08-09T13:50:30.259Z,1.20
2022-08-09T13:52:57.740Z,1.20
2022-08-09T13:55:24.554Z,1.10
2022-08-09T13:57:58.518Z,1.10
2022-08-09T14:00:29.294Z,1.20
2022-08-09T14:03:03.731Z,1.30
2022-08-09T14:05:58.860Z,1.13
2022-08-09T14:08:31.835Z,1.30
2022-08-09T14:11:00.598Z,0.97
2022-08-09T14:14:22.279Z,1.00
2022-08-09T14:16:28.367Z,1.10
2022-08-09T14:18:57.319Z,1.07
2022-08-09T14:21:29.389Z,1.07
2022-08-09T14:24:01.349Z,1.00
2022-08-09T14:26:33.926Z,1.10
2022-08-09T14:29:07.824Z,1.00
2022-08-09T14:31:55.258Z,0.93
2022-08-09T14:34:27.361Z,1.03
2022-08-09T14:37:07.601Z,1.10
2022-08-09T14:39:47.957Z,0.93
2022-08-09T14:42:31.341Z,1.13
2022-08-09T14:46:46.413Z,1.10
2022-08-09T14:47:58.284Z,1.10
2022-08-09T14:50:34.528Z,1.17
2022-08-09T14:53:11.532Z,1.23
2022-08-09T14:55:49.866Z,1.20
2022-08-09T14:58:17.470Z,1.20
2022-08-09T15:00:51.109Z,1.47
2022-08-09T15:03:20.032Z,1.40
2022-08-09T15:05:52.322Z,1.07
2022-08-09T15:08:25.295Z,1.23
2022-08-09T15:11:01.036Z,1.40
2022-08-09T15:13:48.541Z,1.20
2022-08-09T15:16:19.922Z,1.00
2022-08-09T15:18:48.927Z,1.40
2022-08-09T15:21:56.592Z,1.10
2022-08-09T15:24:12.580Z,1.23
2022-08-09T15:26:45.963Z,1.27
2022-08-09T15:30:57.625Z,1.10
2022-08-09T15:32:01.552Z,1.33
2022-08-09T15:34:32.648Z,1.23
2022-08-09T15:37:03.903Z,1.20
2022-08-09T15:39:34.429Z,1.00
2022-08-09T15:42:10.605Z,1.00
2022-08-09T15:44:38.306Z,1.10
2022-08-09T15:47:14.265Z,1.00
2022-08-09T15:50:03.449Z,1.20
2022-08-09T15:52:31.827Z,1.10
2022-08-09T15:54:59.047Z,1.03
2022-08-09T15:57:35.933Z,1.13
2022-08-09T16:00:25.733Z,1.17
2022-08-09T16:02:54.808Z,1.47
2022-08-09T16:05:26.746Z,1.00
2022-08-09T16:08:24.698Z,1.03
2022-08-09T16:10:57.128Z,1.10
2022-08-09T16:14:04.113Z,0.90
2022-08-09T16:16:18.443Z,1.20
2022-08-09T16:18:46.542Z,1.03
2022-08-09T16:21:17.389Z,1.00
2022-08-09T16:23:55.538Z,1.00
2022-08-09T16:26:35.602Z,0.90
2022-08-09T16:29:10.782Z,1.10
2022-08-09T16:32:17.695Z,0.90
2022-08-09T16:34:54.467Z,0.80
2022-08-09T16:37:55.045Z,1.10
2022-08-09T16:40:11.549Z,1.00
2022-08-09T16:42:45.034Z,1.20
2022-08-09T16:45:14.345Z,1.20
2022-08-09T16:48:39.727Z,1.10
2022-08-09T16:50:33.723Z,1.17
2022-08-09T16:53:02.465Z,1.07
2022-08-09T16:55:44.079Z,1.00
2022-08-09T16:58:21.122Z,1.10
2022-08-09T17:00:53.122Z,0.90
2022-08-09T17:03:22.958Z,0.93
2022-08-09T17:06:03.422Z,1.20
2022-08-09T17:08:59.958Z,1.20
2022-08-09T17:11:37.613Z,1.07
2022-08-09T17:14:25.684Z,1.10
2022-08-09T17:16:59.725Z,1.10
2022-08-09T17:19:46.762Z,1.00
2022-08-09T17:22:16.131Z,1.00
2022-08-09T17:24:54.837Z,1.40
2022-08-09T17:27:38.260Z,1.10
2022-08-09T17:30:07.105Z,1.30
2022-08-09T17:32:45.441Z,1.00
2022-08-09T17:35:14.152Z,0.90
2022-08-09T17:38:12.141Z,1.07
2022-08-09T17:40:30.107Z,1.00
2022-08-09T17:42:59.101Z,1.10
2022-08-09T17:46:01.788Z,1.00
2022-08-09T17:48:29.189Z,1.50
2022-08-09T17:50:59.274Z,0.80
2022-08-09T17:53:43.445Z,1.37
2022-08-09T17:56:18.551Z,1.00
2022-08-09T17:58:48.996Z,0.93
2022-08-09T18:06:49.617Z,1.00
2022-08-09T18:09:39.988Z,0.90
2022-08-09T18:12:19.651Z,0.90
2022-08-09T18:15:07.091Z,0.90
2022-08-09T18:18:04.025Z,0.90
2022-08-09T18:20:58.967Z,1.13
2022-08-09T18:24:10.223Z,1.00
2022-08-09T18:26:16.571Z,1.00
2022-08-09T18:30:38.670Z,1.20
2022-08-09T18:31:51.211Z,1.07
2022-08-09T18:34:17.244Z,1.10
2022-08-09T18:36:50.705Z,1.50
2022-08-09T18:39:22.450Z,0.93
2022-08-09T18:41:53.341Z,1.23
2022-08-09T18:44:27.273Z,1.40
2022-08-09T18:47:07.465Z,1.17
2022-08-09T18:49:41.570Z,1.20
2022-08-09T18:52:12.075Z,1.00
2022-08-09T18:54:49.641Z,1.10
2022-08-09T18:57:22.756Z,1.30
2022-08-09T18:59:55.648Z,1.10
2022-08-09T19:02:31.861Z,1.20
2022-08-09T19:05:14.042Z,1.13
2022-08-09T19:08:03.751Z,1.50
2022-08-09T19:10:36.960Z,1.20
2022-08-09T19:13:22.450Z,1.20
2022-08-09T19:15:56.869Z,1.13
2022-08-09T19:18:35.210Z,1.10
2022-08-09T19:21:09.530Z,1.40
2022-08-09T19:24:36.191Z,1.60
2022-08-09T19:26:38.673Z,1.30
2022-08-09T19:29:15.699Z,1.00
2022-08-09T19:31:49.446Z,1.40
2022-08-09T19:34:22.516Z,1.70
2022-08-09T19:36:55.785Z,1.70
2022-08-09T19:40:03.345Z,1.50
2022-08-09T19:42:19.597Z,1.37
2022-08-09T19:44:51.517Z,1.57
2022-08-09T19:47:23.229Z,1.50
2022-08-09T19:50:08.043Z,1.30
2022-08-09T19:52:49.681Z,1.07
2022-08-09T19:55:30.835Z,1.50
2022-08-09T19:58:15.862Z,1.10
2022-08-09T20:00:45.843Z,1.80
2022-08-09T20:04:09.785Z,1.60
2022-08-09T20:06:03.211Z,1.67
2022-08-09T20:08:34.838Z,1.60
2022-08-09T20:11:04.426Z,1.70
2022-08-09T20:13:37.109Z,1.60
2022-08-09T20:16:35.497Z,1.40
2022-08-09T20:19:42.861Z,1.40
2022-08-09T20:21:56.601Z,1.70
2022-08-09T20:24:33.781Z,1.37
2022-08-09T20:27:05.610Z,1.10
2022-08-09T20:29:39.591Z,1.57
2022-08-09T20:32:31.224Z,1.30
2022-08-09T20:34:55.717Z,1.50
2022-08-09T20:37:22.848Z,1.20
2022-08-09T20:40:15.557Z,1.47
2022-08-09T20:42:38.207Z,1.70
2022-08-09T20:45:56.752Z,1.20
2022-08-09T20:47:57.283Z,1.27
2022-08-09T20:50:46.930Z,1.50
2022-08-09T20:53:35.464Z,1.27
2022-08-09T20:56:03.122Z,1.20
2022-08-09T20:58:33.473Z,1.30
2022-08-09T21:01:32.843Z,1.50
2022-08-09T21:05:49.643Z,1.30
2022-08-09T21:06:42.499Z,1.40
2022-08-09T21:09:14.303Z,1.33
2022-08-09T21:14:33.090Z,1.40
2022-08-09T21:18:22.167Z,1.20
2022-08-09T21:20:19.346Z,1.13
2022-08-09T21:22:41.816Z,1.50
2022-08-09T21:25:38.031Z,1.00
2022-08-09T21:28:07.595Z,1.33
2022-08-09T21:30:40.800Z,1.30
2022-08-09T21:33:11.078Z,1.20
2022-08-09T21:35:52.461Z,1.30
2022-08-09T21:38:30.792Z,1.20
2022-08-09T21:41:02.124Z,1.30
2022-08-09T21:43:57.688Z,1.23
2022-08-09T21:47:10.967Z,1.10
2022-08-09T21:49:50.997Z,1.33
2022-08-09T21:52:20.947Z,1.27
2022-08-09T21:55:03.122Z,1.17
2022-08-09T21:57:38.687Z,0.90
2022-08-09T22:00:32.153Z,1.10
2022-08-09T22:03:02.426Z,1.10
2022-08-09T22:05:35.448Z,1.10
2022-08-09T22:08:05.383Z,1.10
2022-08-09T22:10:32.226Z,1.47
2022-08-09T22:13:00.242Z,1.30
2022-08-09T22:15:36.950Z,0.97
2022-08-09T22:24:06.502Z,1.27
2022-08-09T22:26:38.571Z,1.03
2022-08-09T22:29:10.805Z,1.30
2022-08-09T22:31:44.363Z,0.97
2022-08-09T22:34:25.678Z,0.97
2022-08-09T22:37:09.921Z,1.00
2022-08-09T22:39:55.863Z,0.90
2022-08-09T22:44:00.828Z,1.10
2022-08-09T22:49:18.713Z,1.30
2022-08-09T22:51:57.711Z,0.90
2022-08-09T22:54:27.395Z,1.00
2022-08-09T22:56:58.763Z,1.00
2022-08-09T22:59:57.101Z,1.00
2022-08-09T23:02:20.060Z,1.00
2022-08-09T23:12:57.369Z,1.10
2022-08-09T23:19:16.028Z,1.10
2022-08-09T23:21:46.366Z,1.10
2022-08-09T23:24:21.832Z,1.30
2022-08-09T23:26:52.729Z,1.10
2022-08-09T23:29:25.589Z,1.10
2022-08-09T23:32:21.627Z,1.40
2022-08-09T23:34:59.186Z,1.13
2022-08-09T23:43:55.194Z,1.20
2022-08-09T23:52:06.942Z,0.90
2022-08-09T23:57:31.852Z,1.20
